createdAt,value
2023-05-14T00:00:27.788Z,101578.72
2023-05-14T00:01:29.582Z,101575.23
2023-05-14T00:02:31.456Z,101569.97
2023-05-14T00:03:33.432Z,101569.97
2023-05-14T00:04:35.553Z,101572.59
2023-05-14T00:05:37.400Z,101568.20
2023-05-14T00:06:39.197Z,101567.34
2023-05-14T00:07:40.893Z,101565.57
2023-05-14T00:08:42.682Z,101570.80
2023-05-14T00:09:44.513Z,101576.00
2023-05-14T00:10:46.420Z,101575.13
2023-05-14T00:11:48.222Z,101569.05
2023-05-14T00:12:49.910Z,101578.59
2023-05-14T00:13:51.699Z,101578.57
2023-05-14T00:14:53.557Z,101569.00
2023-05-14T00:15:55.257Z,101575.08
2023-05-14T00:16:57.114Z,101580.30
2023-05-14T00:17:58.974Z,101578.53
2023-05-14T00:19:00.766Z,101579.39
2023-05-14T00:20:02.719Z,101575.03
2023-05-14T00:21:04.549Z,101574.12
2023-05-14T00:22:06.242Z,101581.12
2023-05-14T00:23:07.911Z,101575.01
2023-05-14T00:24:09.595Z,101577.60
2023-05-14T00:25:11.311Z,101577.60
2023-05-14T00:26:13.913Z,101573.20
2023-05-14T00:27:15.718Z,101578.42
2023-05-14T00:28:17.504Z,101574.92
2023-05-14T00:29:19.312Z,101578.41
2023-05-14T00:30:21.195Z,101574.92
2023-05-14T00:31:23.065Z,101578.38
2023-05-14T00:32:24.969Z,101574.90
2023-05-14T00:33:26.630Z,101570.52
2023-05-14T00:34:28.337Z,101574.88
2023-05-14T00:35:30.053Z,101572.27
2023-05-14T00:36:31.845Z,101576.57
2023-05-14T00:37:33.537Z,101573.09
2023-05-14T00:38:35.226Z,101575.67
2023-05-14T00:39:36.917Z,101566.98
2023-05-14T00:40:38.866Z,101573.05
2023-05-14T00:41:40.676Z,101564.34
2023-05-14T00:42:42.366Z,101563.44
2023-05-14T00:43:44.056Z,101562.58
2023-05-14T00:44:45.775Z,101569.55
2023-05-14T00:45:47.471Z,101564.32
2023-05-14T00:46:49.324Z,101563.40
2023-05-14T00:47:51.201Z,101559.02
2023-05-14T00:48:53.137Z,101561.61
2023-05-14T00:49:54.931Z,101558.10
2023-05-14T00:50:56.873Z,101559.82
2023-05-14T00:51:58.672Z,101558.92
2023-05-14T00:53:00.457Z,101560.66
2023-05-14T00:54:02.177Z,101565.89
2023-05-14T00:55:03.953Z,101563.25
2023-05-14T00:56:06.006Z,101567.61
2023-05-14T00:57:07.689Z,101573.67
2023-05-14T00:58:09.460Z,101574.52
2023-05-14T00:59:11.253Z,101571.06
2023-05-14T01:00:13.064Z,101573.65
2023-05-14T01:01:14.950Z,101574.50
2023-05-14T01:02:16.772Z,101576.23
2023-05-14T01:03:18.626Z,101577.08
2023-05-14T01:04:20.365Z,101576.22
2023-05-14T01:05:22.053Z,101582.28
2023-05-14T01:06:23.894Z,101582.26
2023-05-14T01:07:25.694Z,101579.63
2023-05-14T01:08:27.379Z,101583.98
2023-05-14T01:09:29.070Z,101585.72
2023-05-14T01:10:30.867Z,101577.86
2023-05-14T01:11:32.579Z,101581.31
2023-05-14T01:12:34.299Z,101575.23
2023-05-14T01:13:35.986Z,101573.48
2023-05-14T01:14:37.696Z,101579.55
2023-05-14T01:15:39.389Z,101578.66
2023-05-14T01:16:41.233Z,101583.88
2023-05-14T01:17:42.952Z,101580.38
2023-05-14T01:18:44.930Z,101580.34
2023-05-14T01:19:46.690Z,101582.09
2023-05-14T01:20:48.672Z,101582.93
2023-05-14T01:21:50.490Z,101576.84
2023-05-14T01:22:52.185Z,101578.59
2023-05-14T01:23:53.981Z,101579.43
2023-05-14T01:24:55.684Z,101580.30
2023-05-14T01:25:57.477Z,101575.95
2023-05-14T01:26:59.330Z,101580.27
2023-05-14T01:28:01.001Z,101581.17
2023-05-14T01:29:02.793Z,101583.78
2023-05-14T01:30:04.586Z,101575.92
2023-05-14T01:31:06.416Z,101581.99
2023-05-14T01:32:08.290Z,101581.12
2023-05-14T01:33:10.111Z,101575.87
2023-05-14T01:34:11.812Z,101578.48
2023-05-14T01:35:13.531Z,101585.42
2023-05-14T01:36:15.325Z,101581.94
2023-05-14T01:37:17.035Z,101581.07
2023-05-14T01:38:18.720Z,101580.15
2023-05-14T01:39:20.522Z,101579.28
2023-05-14T01:40:22.527Z,101581.02
2023-05-14T01:41:24.520Z,101587.11
2023-05-14T01:42:26.251Z,101580.13
2023-05-14T01:43:27.995Z,101583.61
2023-05-14T01:44:29.727Z,101581.86
2023-05-14T01:45:31.737Z,101585.31
2023-05-14T01:46:33.636Z,101579.23
2023-05-14T01:47:35.694Z,101586.19
2023-05-14T01:48:37.532Z,101586.16
2023-05-14T01:49:39.325Z,101587.03
2023-05-14T01:50:41.117Z,101577.41
2023-05-14T01:51:42.904Z,101580.00
2023-05-14T01:52:44.765Z,101584.32
2023-05-14T01:53:46.576Z,101582.55
2023-05-14T01:54:48.384Z,101578.20
2023-05-14T01:55:50.144Z,101582.55
2023-05-14T01:56:51.923Z,101578.17
2023-05-14T01:57:53.865Z,101583.37
2023-05-14T01:58:55.567Z,101580.73
2023-05-14T01:59:57.247Z,101586.84
2023-05-14T02:00:59.077Z,101586.84
2023-05-14T02:02:01.005Z,101585.08
2023-05-14T02:03:02.941Z,101586.80
2023-05-14T02:04:04.716Z,101592.05
2023-05-14T02:05:07.112Z,101594.62
2023-05-14T02:06:09.671Z,101590.25
2023-05-14T02:07:11.365Z,101594.57
2023-05-14T02:08:13.092Z,101593.67
2023-05-14T02:09:14.876Z,101592.80
2023-05-14T02:10:16.678Z,101595.38
2023-05-14T02:11:18.508Z,101600.58
2023-05-14T02:12:20.203Z,101596.23
2023-05-14T02:13:22.041Z,101600.58
2023-05-14T02:14:23.848Z,101595.38
2023-05-14T02:15:25.553Z,101588.38
2023-05-14T02:16:27.422Z,101590.14
2023-05-14T02:17:29.148Z,101594.46
2023-05-14T02:18:30.979Z,101594.46
2023-05-14T02:19:32.775Z,101595.30
2023-05-14T02:20:34.579Z,101595.27
2023-05-14T02:21:36.375Z,101594.40
2023-05-14T02:22:38.208Z,101594.40
2023-05-14T02:23:42.011Z,101591.77
2023-05-14T02:24:43.466Z,101592.67
2023-05-14T02:25:45.183Z,101597.86
2023-05-14T02:26:46.973Z,101590.88
2023-05-14T02:27:48.773Z,101591.71
2023-05-14T02:28:50.631Z,101584.76
2023-05-14T02:29:52.423Z,101591.69
2023-05-14T02:30:54.322Z,101590.81
2023-05-14T02:31:56.035Z,101587.34
2023-05-14T02:32:57.875Z,101588.20
2023-05-14T02:33:59.840Z,101582.99
2023-05-14T02:35:01.550Z,101586.47
2023-05-14T02:36:03.376Z,101585.59
2023-05-14T02:37:05.171Z,101589.08
2023-05-14T02:38:06.964Z,101592.58
2023-05-14T02:39:08.715Z,101586.49
2023-05-14T02:40:10.629Z,101589.10
2023-05-14T02:41:12.414Z,101587.39
2023-05-14T02:42:14.216Z,101588.27
2023-05-14T02:43:16.022Z,101596.95
2023-05-14T02:44:17.864Z,101585.66
2023-05-14T02:45:19.673Z,101590.89
2023-05-14T02:46:21.610Z,101590.89
2023-05-14T02:47:23.427Z,101594.40
2023-05-14T02:48:25.612Z,101595.27
2023-05-14T02:49:27.356Z,101594.40
2023-05-14T02:50:29.164Z,101590.09
2023-05-14T02:51:30.905Z,101599.68
2023-05-14T02:52:32.605Z,101591.85
2023-05-14T02:53:34.311Z,101587.50
2023-05-14T02:54:36.044Z,101590.14
2023-05-14T02:55:37.732Z,101587.53
2023-05-14T02:56:39.539Z,101597.16
2023-05-14T02:57:41.234Z,101594.55
2023-05-14T02:58:42.936Z,101590.20
2023-05-14T02:59:44.671Z,101591.96
2023-05-14T03:00:46.813Z,101593.70
2023-05-14T03:01:49.201Z,101593.72
2023-05-14T03:02:51.711Z,101598.10
2023-05-14T03:03:53.996Z,101590.30
2023-05-14T03:04:55.779Z,101599.02
2023-05-14T03:05:57.580Z,101598.18
2023-05-14T03:06:59.358Z,101598.20
2023-05-14T03:08:01.088Z,101594.76
2023-05-14T03:09:02.865Z,101595.65
2023-05-14T03:10:04.823Z,101593.94
2023-05-14T03:11:06.626Z,101600.08
2023-05-14T03:12:08.438Z,101600.11
2023-05-14T03:13:10.216Z,101599.27
2023-05-14T03:14:12.033Z,101591.46
2023-05-14T03:15:13.866Z,101597.58
2023-05-14T03:16:16.223Z,101598.47
2023-05-14T03:17:18.053Z,101600.26
2023-05-14T03:18:19.798Z,101609.91
2023-05-14T03:19:21.499Z,101604.71
2023-05-14T03:20:23.429Z,101606.47
2023-05-14T03:21:25.443Z,101605.66
2023-05-14T03:22:27.241Z,101607.45
2023-05-14T03:23:28.932Z,101606.61
2023-05-14T03:24:30.727Z,101609.27
2023-05-14T03:25:32.570Z,101607.57
2023-05-14T03:26:34.383Z,101607.59
2023-05-14T03:27:36.083Z,101604.16
2023-05-14T03:28:37.801Z,101608.53
2023-05-14T03:29:39.482Z,101612.94
2023-05-14T03:30:41.323Z,101600.78
2023-05-14T03:31:45.503Z,101605.18
2023-05-14T03:32:47.261Z,101605.23
2023-05-14T03:33:48.936Z,101603.54
2023-05-14T03:34:50.733Z,101607.06
2023-05-14T03:35:52.571Z,101607.95
2023-05-14T03:36:54.377Z,101604.52
2023-05-14T03:37:56.189Z,101601.95
2023-05-14T03:38:57.888Z,101603.74
2023-05-14T03:39:59.699Z,101605.50
2023-05-14T03:41:01.452Z,101610.80
2023-05-14T03:42:03.295Z,101608.20
2023-05-14T03:43:05.009Z,101608.23
2023-05-14T03:44:06.701Z,101607.39
2023-05-14T03:45:08.392Z,101610.95
2023-05-14T03:46:10.321Z,101615.32
2023-05-14T03:47:12.029Z,101610.13
2023-05-14T03:48:13.771Z,101606.70
2023-05-14T03:49:15.636Z,101607.64
2023-05-14T03:50:17.480Z,101615.52
2023-05-14T03:51:19.152Z,101609.43
2023-05-14T03:52:20.842Z,101612.06
2023-05-14T03:53:22.639Z,101616.48
2023-05-14T03:54:24.436Z,101614.76
2023-05-14T03:55:26.145Z,101617.41
2023-05-14T03:56:27.989Z,101613.13
2023-05-14T03:57:29.784Z,101614.01
2023-05-14T03:58:31.483Z,101611.43
2023-05-14T03:59:33.172Z,101617.59
2023-05-14T04:00:34.967Z,101615.02
2023-05-14T04:01:36.802Z,101617.67
2023-05-14T04:02:38.745Z,101615.08
2023-05-14T04:03:40.796Z,101615.98
2023-05-14T04:04:42.887Z,101612.53
2023-05-14T04:05:44.619Z,101615.20
2023-05-14T04:06:46.546Z,101611.75
2023-05-14T04:07:48.349Z,101617.87
2023-05-14T04:08:50.248Z,101619.67
2023-05-14T04:09:51.943Z,101610.09
2023-05-14T04:10:54.139Z,101613.64
2023-05-14T04:11:55.980Z,101618.05
2023-05-14T04:12:57.681Z,101616.35
2023-05-14T04:13:59.479Z,101622.48
2023-05-14T04:15:01.236Z,101620.75
2023-05-14T04:16:03.141Z,101611.20
2023-05-14T04:17:04.939Z,101618.18
2023-05-14T04:18:06.767Z,101606.87
2023-05-14T04:19:08.570Z,101614.76
2023-05-14T04:20:11.123Z,101614.78
2023-05-14T04:21:12.897Z,101614.82
2023-05-14T04:22:14.741Z,101616.59
2023-05-14T04:23:16.441Z,101609.63
2023-05-14T04:24:18.229Z,101611.41
2023-05-14T04:25:19.919Z,101609.67
2023-05-14T04:26:21.716Z,101608.84
2023-05-14T04:27:23.549Z,101614.11
2023-05-14T04:28:25.344Z,101610.64
2023-05-14T04:29:27.145Z,101610.66
2023-05-14T04:30:28.943Z,101609.80
2023-05-14T04:31:30.650Z,101614.19
2023-05-14T04:32:32.464Z,101604.64
2023-05-14T04:33:34.256Z,101609.00
2023-05-14T04:34:36.057Z,101607.31
2023-05-14T04:35:37.848Z,101605.56
2023-05-14T04:36:39.728Z,101600.36
2023-05-14T04:37:41.448Z,101609.98
2023-05-14T04:38:43.133Z,101611.73
2023-05-14T04:39:44.839Z,101608.27
2023-05-14T04:40:46.643Z,101603.05
2023-05-14T04:41:48.542Z,101611.83
2023-05-14T04:42:50.275Z,101605.72
2023-05-14T04:43:51.967Z,101611.88
2023-05-14T04:44:53.750Z,101604.89
2023-05-14T04:45:55.483Z,101608.41
2023-05-14T04:46:57.450Z,101606.70
2023-05-14T04:47:59.256Z,101611.99
2023-05-14T04:49:00.969Z,101610.26
2023-05-14T04:50:02.762Z,101611.17
2023-05-14T04:51:06.862Z,101615.55
2023-05-14T04:52:08.088Z,101611.22
2023-05-14T04:53:09.915Z,101618.20
2023-05-14T04:54:11.738Z,101620.88
2023-05-14T04:55:13.397Z,101616.52
2023-05-14T04:56:15.208Z,101615.67
2023-05-14T04:57:16.999Z,101619.17
2023-05-14T04:58:18.721Z,101621.81
2023-05-14T04:59:20.417Z,101620.97
2023-05-14T05:00:22.748Z,101615.73
2023-05-14T05:01:24.855Z,101614.89
2023-05-14T05:02:26.622Z,101614.00
2023-05-14T05:03:28.482Z,101612.29
2023-05-14T05:04:30.224Z,101613.16
2023-05-14T05:05:31.936Z,101616.66
2023-05-14T05:06:33.750Z,101615.81
2023-05-14T05:07:35.418Z,101608.81
2023-05-14T05:08:37.138Z,101612.34
2023-05-14T05:09:38.930Z,101613.22
2023-05-14T05:10:40.729Z,101612.36
2023-05-14T05:11:42.435Z,101616.75
2023-05-14T05:12:44.147Z,101614.13
2023-05-14T05:13:45.969Z,101614.14
2023-05-14T05:14:47.657Z,101614.14
2023-05-14T05:15:49.487Z,101618.50
2023-05-14T05:16:51.255Z,101611.53
2023-05-14T05:17:53.116Z,101612.41
2023-05-14T05:18:55.018Z,101612.41
2023-05-14T05:19:56.662Z,101615.03
2023-05-14T05:20:58.459Z,101614.19
2023-05-14T05:22:00.472Z,101608.94
2023-05-14T05:23:02.318Z,101618.58
2023-05-14T05:24:04.055Z,101608.09
2023-05-14T05:25:05.849Z,101611.58
2023-05-14T05:26:07.747Z,101611.62
2023-05-14T05:27:09.552Z,101610.77
2023-05-14T05:28:11.350Z,101609.02
2023-05-14T05:29:13.171Z,101609.87
2023-05-14T05:30:15.165Z,101616.03
2023-05-14T05:31:19.656Z,101613.41
2023-05-14T05:32:20.816Z,101610.80
2023-05-14T05:33:22.519Z,101608.17
2023-05-14T05:34:24.376Z,101607.31
2023-05-14T05:35:26.079Z,101605.55
2023-05-14T05:36:27.873Z,101612.57
2023-05-14T05:37:29.676Z,101609.05
2023-05-14T05:38:31.465Z,101607.33
2023-05-14T05:39:33.213Z,101615.20
2023-05-14T05:40:35.103Z,101609.95
2023-05-14T05:41:36.797Z,101608.20
2023-05-14T05:42:38.496Z,101613.45
2023-05-14T05:43:40.327Z,101608.20
2023-05-14T05:44:42.023Z,101607.34
2023-05-14T05:45:43.819Z,101602.08
2023-05-14T05:46:45.662Z,101598.59
2023-05-14T05:47:47.414Z,101602.95
2023-05-14T05:48:49.104Z,101601.22
2023-05-14T05:49:50.796Z,101602.95
2023-05-14T05:50:52.597Z,101603.84
2023-05-14T05:51:54.290Z,101604.71
2023-05-14T05:52:55.995Z,101602.09
2023-05-14T05:53:57.773Z,101609.10
2023-05-14T05:54:59.724Z,101602.95
2023-05-14T05:56:01.546Z,101608.23
2023-05-14T05:57:03.330Z,101605.61
2023-05-14T05:58:05.124Z,101601.22
2023-05-14T05:59:06.801Z,101604.71
2023-05-14T06:00:09.022Z,101602.98
2023-05-14T06:01:10.816Z,101598.59
2023-05-14T06:02:12.661Z,101602.98
2023-05-14T06:03:14.581Z,101602.98
2023-05-14T06:04:16.365Z,101603.84
2023-05-14T06:05:18.110Z,101602.08
2023-05-14T06:06:19.865Z,101598.59
2023-05-14T06:07:21.670Z,101601.22
2023-05-14T06:08:23.386Z,101598.59
2023-05-14T06:09:25.301Z,101596.83
2023-05-14T06:10:29.318Z,101599.45
2023-05-14T06:11:31.298Z,101599.45
2023-05-14T06:12:33.096Z,101603.83
2023-05-14T06:13:34.838Z,101593.33
2023-05-14T06:14:36.581Z,101595.95
2023-05-14T06:15:38.315Z,101595.95
2023-05-14T06:16:40.157Z,101592.45
2023-05-14T06:17:42.179Z,101598.58
2023-05-14T06:18:43.951Z,101592.45
2023-05-14T06:19:45.944Z,101589.85
2023-05-14T06:20:47.743Z,101588.98
2023-05-14T06:21:49.435Z,101590.72
2023-05-14T06:22:51.242Z,101594.23
2023-05-14T06:23:53.040Z,101595.09
2023-05-14T06:24:54.731Z,101590.70
2023-05-14T06:25:56.573Z,101587.20
2023-05-14T06:26:58.372Z,101587.20
2023-05-14T06:28:00.153Z,101583.70
2023-05-14T06:29:01.961Z,101584.57
2023-05-14T06:30:04.076Z,101587.20
2023-05-14T06:31:05.800Z,101588.95
2023-05-14T06:32:07.521Z,101589.81
2023-05-14T06:33:09.405Z,101590.72
2023-05-14T06:34:11.284Z,101584.55
2023-05-14T06:35:12.997Z,101583.69
2023-05-14T06:36:15.050Z,101584.55
2023-05-14T06:37:16.744Z,101586.31
2023-05-14T06:38:18.438Z,101587.17
2023-05-14T06:39:20.245Z,101582.80
2023-05-14T06:40:22.376Z,101584.53
2023-05-14T06:41:24.687Z,101581.90
2023-05-14T06:42:26.426Z,101591.55
2023-05-14T06:43:28.291Z,101583.65
2023-05-14T06:44:29.978Z,101585.41
2023-05-14T06:45:33.178Z,101582.77
2023-05-14T06:46:35.234Z,101578.38
2023-05-14T06:47:36.993Z,101585.39
2023-05-14T06:48:38.930Z,101580.13
2023-05-14T06:49:40.634Z,101581.88
2023-05-14T06:50:42.432Z,101582.74
2023-05-14T06:51:44.278Z,101576.61
2023-05-14T06:52:45.971Z,101571.34
2023-05-14T06:53:47.685Z,101581.86
2023-05-14T06:54:49.486Z,101577.45
2023-05-14T06:55:51.182Z,101580.08
2023-05-14T06:56:53.114Z,101577.44
2023-05-14T06:57:54.938Z,101575.67
2023-05-14T06:58:56.648Z,101576.57
2023-05-14T06:59:58.469Z,101578.30
2023-05-14T07:01:00.384Z,101576.56
2023-05-14T07:02:02.466Z,101575.69
2023-05-14T07:03:04.307Z,101577.42
2023-05-14T07:04:06.101Z,101571.28
2023-05-14T07:05:07.868Z,101582.66
2023-05-14T07:06:11.261Z,101582.66
2023-05-14T07:07:13.429Z,101580.91
2023-05-14T07:08:15.137Z,101582.64
2023-05-14T07:09:16.841Z,101579.13
2023-05-14T07:10:18.633Z,101580.88
2023-05-14T07:11:20.442Z,101581.74
2023-05-14T07:12:22.207Z,101574.70
2023-05-14T07:13:24.621Z,101577.33
2023-05-14T07:14:27.408Z,101580.84
2023-05-14T07:15:29.230Z,101573.82
2023-05-14T07:16:31.060Z,101573.81
2023-05-14T07:17:32.876Z,101569.44
2023-05-14T07:18:34.684Z,101575.59
2023-05-14T07:19:36.367Z,101582.59
2023-05-14T07:20:38.158Z,101579.05
2023-05-14T07:21:39.930Z,101579.03
2023-05-14T07:22:41.849Z,101576.39
2023-05-14T07:23:43.656Z,101569.37
2023-05-14T07:24:45.570Z,101571.09
2023-05-14T07:25:47.383Z,101568.47
2023-05-14T07:26:49.204Z,101560.56
2023-05-14T07:27:50.939Z,101561.42
2023-05-14T07:28:52.845Z,101566.66
2023-05-14T07:29:54.586Z,101565.78
2023-05-14T07:30:56.395Z,101560.49
2023-05-14T07:31:58.178Z,101565.75
2023-05-14T07:32:59.928Z,101566.59
2023-05-14T07:34:01.605Z,101563.95
2023-05-14T07:35:03.311Z,101557.80
2023-05-14T07:36:05.102Z,101561.28
2023-05-14T07:37:06.790Z,101560.40
2023-05-14T07:38:08.530Z,101564.78
2023-05-14T07:39:10.233Z,101566.49
2023-05-14T07:40:12.157Z,101558.58
2023-05-14T07:41:13.961Z,101562.09
2023-05-14T07:42:27.947Z,101555.05
2023-05-14T07:43:19.386Z,101562.06
2023-05-14T07:44:21.185Z,101558.50
2023-05-14T07:45:22.984Z,101558.48
2023-05-14T07:46:27.795Z,101563.75
2023-05-14T07:47:29.745Z,101558.47
2023-05-14T07:48:31.616Z,101563.72
2023-05-14T07:49:33.383Z,101555.81
2023-05-14T07:50:35.213Z,101551.39
2023-05-14T07:51:36.988Z,101555.78
2023-05-14T07:52:38.790Z,101547.85
2023-05-14T07:53:40.626Z,101552.20
2023-05-14T07:54:42.444Z,101548.69
2023-05-14T07:55:44.709Z,101546.03
2023-05-14T07:56:46.500Z,101543.39
2023-05-14T07:57:48.220Z,101552.16
2023-05-14T07:58:49.966Z,101548.64
2023-05-14T07:59:51.669Z,101548.63
2023-05-14T08:00:53.475Z,101546.88
2023-05-14T08:01:55.305Z,101550.36
2023-05-14T08:02:57.468Z,101549.48
2023-05-14T08:03:59.521Z,101546.83
2023-05-14T08:05:01.422Z,101546.81
2023-05-14T08:06:03.316Z,101546.80
2023-05-14T08:07:05.115Z,101549.42
2023-05-14T08:08:06.880Z,101552.03
2023-05-14T08:09:08.704Z,101557.30
2023-05-14T08:10:11.324Z,101543.20
2023-05-14T08:11:13.174Z,101546.73
2023-05-14T08:12:14.949Z,101546.70
2023-05-14T08:13:17.923Z,101548.44
2023-05-14T08:14:19.822Z,101548.42
2023-05-14T08:15:21.607Z,101551.92
2023-05-14T08:16:23.461Z,101541.36
2023-05-14T08:17:25.455Z,101551.02
2023-05-14T08:18:27.236Z,101553.62
2023-05-14T08:19:29.061Z,101550.08
2023-05-14T08:20:30.957Z,101554.48
2023-05-14T08:21:32.774Z,101551.80
2023-05-14T08:22:34.560Z,101547.39
2023-05-14T08:23:36.257Z,101551.77
2023-05-14T08:24:38.133Z,101546.48
2023-05-14T08:25:39.839Z,101554.39
2023-05-14T08:26:41.750Z,101553.49
2023-05-14T08:27:43.469Z,101550.84
2023-05-14T08:28:45.630Z,101544.69
2023-05-14T08:29:47.528Z,101542.95
2023-05-14T08:30:49.402Z,101545.56
2023-05-14T08:31:51.250Z,101549.95
2023-05-14T08:32:53.056Z,101547.32
2023-05-14T08:33:55.089Z,101535.86
2023-05-14T08:34:56.908Z,101532.34
2023-05-14T08:35:58.745Z,101536.73
2023-05-14T08:37:00.770Z,101536.73
2023-05-14T08:38:02.575Z,101546.35
2023-05-14T08:39:04.268Z,101541.95
2023-05-14T08:40:06.314Z,101535.78
2023-05-14T08:41:08.015Z,101541.04
2023-05-14T08:42:09.868Z,101540.14
2023-05-14T08:43:11.717Z,101536.64
2023-05-14T08:44:13.474Z,101538.34
2023-05-14T08:45:15.194Z,101544.52
2023-05-14T08:46:16.999Z,101546.23
2023-05-14T08:47:18.717Z,101535.67
2023-05-14T08:48:20.517Z,101542.70
2023-05-14T08:49:22.282Z,101539.20
2023-05-14T08:50:24.196Z,101534.79
2023-05-14T08:51:25.965Z,101534.77
2023-05-14T08:52:27.668Z,101532.99
2023-05-14T08:53:29.366Z,101540.05
2023-05-14T08:54:31.159Z,101537.41
2023-05-14T08:55:32.875Z,101533.91
2023-05-14T08:56:34.677Z,101540.91
2023-05-14T08:57:36.462Z,101528.63
2023-05-14T08:58:38.278Z,101529.49
2023-05-14T08:59:40.073Z,101524.23
2023-05-14T09:00:41.882Z,101524.23
2023-05-14T09:01:43.595Z,101520.73
2023-05-14T09:02:45.413Z,101516.30
2023-05-14T09:03:47.271Z,101518.94
2023-05-14T09:04:48.954Z,101512.80
2023-05-14T09:05:50.733Z,101509.25
2023-05-14T09:06:52.549Z,101511.01
2023-05-14T09:07:54.248Z,101518.92
2023-05-14T09:08:55.937Z,101513.62
2023-05-14T09:09:57.749Z,101506.61
2023-05-14T09:10:59.584Z,101505.70
2023-05-14T09:12:01.320Z,101509.20
2023-05-14T09:13:03.085Z,101502.13
2023-05-14T09:14:04.876Z,101501.23
2023-05-14T09:15:06.630Z,101501.22
2023-05-14T09:16:08.798Z,101495.00
2023-05-14T09:17:10.439Z,101499.36
2023-05-14T09:18:12.197Z,101495.81
2023-05-14T09:19:14.012Z,101499.27
2023-05-14T09:20:16.064Z,101493.97
2023-05-14T09:21:17.896Z,101500.09
2023-05-14T09:22:19.590Z,101494.80
2023-05-14T09:23:21.375Z,101498.27
2023-05-14T09:24:23.285Z,101492.11
2023-05-14T09:25:25.092Z,101495.59
2023-05-14T09:26:26.928Z,101492.92
2023-05-14T09:27:28.728Z,101490.23
2023-05-14T09:28:30.581Z,101498.13
2023-05-14T09:29:32.314Z,101489.30
2023-05-14T09:30:34.091Z,101487.53
2023-05-14T09:31:35.829Z,101490.14
2023-05-14T09:32:37.593Z,101489.26
2023-05-14T09:33:39.380Z,101489.23
2023-05-14T09:34:41.177Z,101496.22
2023-05-14T09:35:42.883Z,101490.02
2023-05-14T09:36:44.695Z,101486.50
2023-05-14T09:37:46.488Z,101490.00
2023-05-14T09:38:48.184Z,101489.14
2023-05-14T09:39:50.090Z,101497.89
2023-05-14T09:40:51.986Z,101481.19
2023-05-14T09:41:53.814Z,101480.30
2023-05-14T09:42:55.594Z,101480.25
2023-05-14T09:43:57.392Z,101477.61
2023-05-14T09:44:59.095Z,101477.59
2023-05-14T09:46:00.792Z,101479.31
2023-05-14T09:47:02.633Z,101472.28
2023-05-14T09:48:04.416Z,101471.37
2023-05-14T09:49:06.435Z,101471.31
2023-05-14T09:50:08.327Z,101470.41
2023-05-14T09:51:10.113Z,101471.27
2023-05-14T09:52:11.927Z,101463.30
2023-05-14T09:53:13.620Z,101461.48
2023-05-14T09:54:15.313Z,101464.10
2023-05-14T09:55:17.011Z,101457.91
2023-05-14T09:56:18.999Z,101456.95
2023-05-14T09:57:20.711Z,101456.94
2023-05-14T09:58:22.428Z,101463.09
2023-05-14T09:59:24.265Z,101466.56
2023-05-14T10:00:26.204Z,101466.53
2023-05-14T10:01:28.179Z,101463.86
2023-05-14T10:02:29.979Z,101464.75
2023-05-14T10:03:31.644Z,101457.69
2023-05-14T10:04:33.380Z,101459.45
2023-05-14T10:05:35.142Z,101460.33
2023-05-14T10:06:36.946Z,101456.80
2023-05-14T10:07:38.776Z,101454.16
2023-05-14T10:08:40.570Z,101452.38
2023-05-14T10:09:42.360Z,101453.24
2023-05-14T10:10:44.154Z,101455.00
2023-05-14T10:11:45.960Z,101449.71
2023-05-14T10:12:47.786Z,101453.19
2023-05-14T10:13:49.479Z,101450.54
2023-05-14T10:14:51.274Z,101453.16
2023-05-14T10:15:53.064Z,101448.73
2023-05-14T10:16:54.888Z,101450.45
2023-05-14T10:17:56.724Z,101453.99
2023-05-14T10:18:58.532Z,101449.56
2023-05-14T10:20:00.384Z,101453.06
2023-05-14T10:21:02.072Z,101449.56
2023-05-14T10:22:03.984Z,101446.92
2023-05-14T10:23:05.815Z,101440.78
2023-05-14T10:24:07.612Z,101443.45
2023-05-14T10:25:09.414Z,101442.53
2023-05-14T10:26:11.822Z,101442.56
2023-05-14T10:27:13.654Z,101437.27
2023-05-14T10:28:15.452Z,101443.48
2023-05-14T10:29:17.153Z,101444.34
2023-05-14T10:30:19.077Z,101439.95
2023-05-14T10:31:20.920Z,101441.70
2023-05-14T10:32:22.747Z,101439.92
2023-05-14T10:33:24.597Z,101442.59
2023-05-14T10:34:26.285Z,101436.41
2023-05-14T10:35:27.973Z,101441.70
2023-05-14T10:36:30.073Z,101440.81
2023-05-14T10:37:31.778Z,101433.74
2023-05-14T10:38:33.514Z,101437.24
2023-05-14T10:39:35.325Z,101439.03
2023-05-14T10:40:37.114Z,101433.74
2023-05-14T10:41:38.812Z,101429.31
2023-05-14T10:42:40.525Z,101433.71
2023-05-14T10:43:42.269Z,101430.21
2023-05-14T10:44:43.948Z,101427.56
2023-05-14T10:45:45.744Z,101430.21
2023-05-14T10:46:47.552Z,101426.64
2023-05-14T10:47:49.341Z,101432.83
2023-05-14T10:48:51.146Z,101431.07
2023-05-14T10:49:52.843Z,101429.29
2023-05-14T10:50:54.772Z,101433.71
2023-05-14T10:51:56.550Z,101434.60
2023-05-14T10:52:58.351Z,101431.95
2023-05-14T10:54:00.183Z,101434.60
2023-05-14T10:55:03.392Z,101438.17
2023-05-14T10:56:05.740Z,101439.89
2023-05-14T10:57:07.534Z,101428.45
2023-05-14T10:58:09.336Z,101437.27
2023-05-14T10:59:11.184Z,101435.55
2023-05-14T11:00:13.302Z,101436.44
2023-05-14T11:01:14.994Z,101436.44
2023-05-14T11:02:16.802Z,101437.33
2023-05-14T11:03:18.480Z,101434.69
2023-05-14T11:04:20.328Z,101435.58
2023-05-14T11:05:22.126Z,101429.44
2023-05-14T11:06:23.922Z,101437.36
2023-05-14T11:07:25.747Z,101433.00
2023-05-14T11:08:29.412Z,101435.67
2023-05-14T11:09:30.982Z,101438.31
2023-05-14T11:10:32.878Z,101438.31
2023-05-14T11:11:34.571Z,101441.84
2023-05-14T11:12:36.280Z,101440.09
2023-05-14T11:13:37.989Z,101429.52
2023-05-14T11:14:39.804Z,101433.08
2023-05-14T11:15:41.511Z,101436.61
2023-05-14T11:16:43.376Z,101430.47
2023-05-14T11:17:45.188Z,101437.50
2023-05-14T11:18:47.148Z,101431.36
2023-05-14T11:19:51.059Z,101435.75
2023-05-14T11:20:52.997Z,101426.97
2023-05-14T11:21:54.821Z,101432.22
2023-05-14T11:22:56.513Z,101432.22
2023-05-14T11:23:58.217Z,101425.18
2023-05-14T11:25:00.074Z,101427.82
2023-05-14T11:26:01.889Z,101421.68
2023-05-14T11:27:03.768Z,101419.90
2023-05-14T11:28:05.567Z,101423.44
2023-05-14T11:29:07.263Z,101422.54
2023-05-14T11:30:09.425Z,101424.30
2023-05-14T11:31:11.229Z,101417.26
2023-05-14T11:32:13.011Z,101416.37
2023-05-14T11:33:14.720Z,101418.98
2023-05-14T11:34:16.499Z,101419.91
2023-05-14T11:35:18.318Z,101424.23
2023-05-14T11:36:20.151Z,101419.87
2023-05-14T11:37:21.902Z,101425.10
2023-05-14T11:38:23.744Z,101423.32
2023-05-14T11:39:25.540Z,101415.36
2023-05-14T11:40:27.354Z,101412.72
2023-05-14T11:41:29.169Z,101417.12
2023-05-14T11:42:30.951Z,101413.55
2023-05-14T11:43:32.659Z,101412.66
2023-05-14T11:44:34.460Z,101408.20
2023-05-14T11:45:36.202Z,101406.46